Time;durP1;ratioP1;P1;durP2;ratioP2;P2;SDS_P1;SDS_P2;PMS_P1;PMS_P2;Temp;Humidity;BMP_temperature;BMP_pressure;BME280_temperature;BME280_humidity;BME280_pressure;Samples;Min_cycle;Max_cycle;Signal;HPM_P1;HPM_P2
2020/12/21 00:00:11;;;;;;;16.10;10.38;;;;;;;;;;6341795;22;20115;-89
2020/12/21 00:02:38;;;;;;;17.52;11.48;;;;;;;;;;6340722;22;20309;-89
2020/12/21 00:05:05;;;;;;;15.68;10.70;;;;;;;;;;6340081;22;20018;-89
2020/12/21 00:07:31;;;;;;;16.38;11.15;;;;;;;;;;6339730;22;20347;-89
2020/12/21 00:09:57;;;;;;;19.65;12.35;;;;;;;;;;6340254;22;20022;-89
2020/12/21 00:12:23;;;;;;;18.85;11.68;;;;;;;;;;6339792;22;20094;-89
2020/12/21 00:14:50;;;;;;;16.45;10.90;;;;;;;;;;6339287;22;20026;-89
2020/12/21 00:17:16;;;;;;;14.68;10.48;;;;;;;;;;6339501;22;20355;-89
2020/12/21 00:19:42;;;;;;;15.77;11.18;;;;;;;;;;6340308;22;20019;-89
2020/12/21 00:22:08;;;;;;;17.40;11.45;;;;;;;;;;6340226;22;20053;-89
2020/12/21 00:24:34;;;;;;;19.38;12.00;;;;;;;;;;6340255;22;20038;-89
2020/12/21 00:27:00;;;;;;;17.17;10.80;;;;;;;;;;6340180;22;20533;-89
2020/12/21 00:29:26;;;;;;;18.52;12.77;;;;;;;;;;6339865;22;20494;-89
2020/12/21 00:31:53;;;;;;;17.58;12.00;;;;;;;;;;6340183;22;20019;-89
2020/12/21 00:34:19;;;;;;;18.67;11.98;;;;;;;;;;6340442;22;20325;-89
2020/12/21 00:36:47;;;;;;;18.35;11.75;;;;;;;;;;6340309;22;20105;-89
2020/12/21 00:39:13;;;;;;;19.15;12.52;;;;;;;;;;6339665;22;20015;-89
2020/12/21 00:41:39;;;;;;;20.17;12.95;;;;;;;;;;6340958;22;20022;-89
2020/12/21 00:44:06;;;;;;;17.98;11.80;;;;;;;;;;6341602;22;20022;-89
2020/12/21 00:46:32;;;;;;;18.92;12.20;;;;;;;;;;6341079;22;20023;-89
2020/12/21 00:49:00;;;;;;;16.42;11.27;;;;;;;;;;6340557;22;20068;-89
2020/12/21 00:51:26;;;;;;;15.45;10.55;;;;;;;;;;6340703;22;20026;-89
2020/12/21 00:53:53;;;;;;;19.45;12.20;;;;;;;;;;6341805;22;20546;-89
2020/12/21 00:56:20;;;;;;;14.82;10.55;;;;;;;;;;6341240;22;20023;-89
2020/12/21 00:58:47;;;;;;;19.27;11.27;;;;;;;;;;6340108;22;20022;-89
2020/12/21 01:01:16;;;;;;;16.80;10.50;;;;;;;;;;6340695;22;20015;-89
2020/12/21 01:03:42;;;;;;;16.67;11.85;;;;;;;;;;6340638;22;20015;-89
2020/12/21 01:06:09;;;;;;;17.95;12.48;;;;;;;;;;6343113;22;20029;-89
2020/12/21 01:08:35;;;;;;;17.65;12.63;;;;;;;;;;6341692;22;20512;-89
2020/12/21 01:11:01;;;;;;;18.45;12.07;;;;;;;;;;6341487;22;20014;-89
2020/12/21 01:13:27;;;;;;;18.63;13.82;;;;;;;;;;6341389;22;20015;-89
2020/12/21 01:15:53;;;;;;;17.90;12.40;;;;;;;;;;6342347;22;20041;-89
2020/12/21 01:18:19;;;;;;;17.73;12.98;;;;;;;;;;6341675;22;20653;-90
2020/12/21 01:20:45;;;;;;;18.23;11.73;;;;;;;;;;6340540;22;20744;-89
2020/12/21 01:23:12;;;;;;;16.20;11.30;;;;;;;;;;6341237;22;20041;-89
2020/12/21 01:25:38;;;;;;;16.50;11.20;;;;;;;;;;6341656;22;20042;-89
2020/12/21 01:28:05;;;;;;;17.48;12.68;;;;;;;;;;6341540;22;20025;-89
2020/12/21 01:30:31;;;;;;;18.08;11.48;;;;;;;;;;6340730;22;20703;-89
2020/12/21 01:32:57;;;;;;;18.98;12.38;;;;;;;;;;6340617;22;20019;-89
2020/12/21 01:35:22;;;;;;;17.60;12.82;;;;;;;;;;6341035;22;20561;-89
2020/12/21 01:37:48;;;;;;;16.98;11.35;;;;;;;;;;6341666;22;20026;-89
2020/12/21 01:40:15;;;;;;;15.73;11.27;;;;;;;;;;6341458;22;20083;-89
2020/12/21 01:42:41;;;;;;;17.90;12.50;;;;;;;;;;6341130;22;20026;-89
2020/12/21 01:45:08;;;;;;;19.58;12.20;;;;;;;;;;6342123;22;20041;-90
2020/12/21 01:47:35;;;;;;;17.77;12.68;;;;;;;;;;6342840;22;20347;-89
2020/12/21 01:50:01;;;;;;;19.00;12.90;;;;;;;;;;6342523;22;20380;-89
2020/12/21 01:52:27;;;;;;;16.30;11.30;;;;;;;;;;6341975;22;20436;-89
2020/12/21 01:54:53;;;;;;;19.80;12.85;;;;;;;;;;6341443;22;20026;-89
2020/12/21 01:57:20;;;;;;;18.98;13.50;;;;;;;;;;6342636;22;20475;-89
2020/12/21 01:59:46;;;;;;;19.17;12.75;;;;;;;;;;6341846;22;20015;-89
2020/12/21 02:02:12;;;;;;;19.60;12.85;;;;;;;;;;6302655;22;20052;-81
2020/12/21 02:04:38;;;;;;;18.15;12.05;;;;;;;;;;6173676;23;20438;-81
2020/12/21 02:07:06;;;;;;;20.95;13.13;;;;;;;;;;6186363;23;20017;-81
2020/12/21 02:09:33;;;;;;;17.80;11.55;;;;;;;;;;6186584;23;20020;-82
2020/12/21 02:11:59;;;;;;;21.95;13.38;;;;;;;;;;6186624;23;20070;-82
2020/12/21 02:14:26;;;;;;;19.20;12.57;;;;;;;;;;6186549;23;20017;-82
2020/12/21 02:16:52;;;;;;;20.05;12.35;;;;;;;;;;6186072;23;20433;-82
2020/12/21 02:19:18;;;;;;;18.10;12.38;;;;;;;;;;6186553;23;20013;-82
2020/12/21 02:21:45;;;;;;;17.10;11.50;;;;;;;;;;6186352;23;20020;-82
2020/12/21 02:24:11;;;;;;;18.50;11.20;;;;;;;;;;6186402;23;20013;-82
2020/12/21 02:26:37;;;;;;;18.20;11.63;;;;;;;;;;6159602;23;20055;-82
2020/12/21 02:29:04;;;;;;;16.98;12.05;;;;;;;;;;6186137;23;20021;-82
2020/12/21 02:31:30;;;;;;;17.52;12.27;;;;;;;;;;6185854;23;20013;-82
2020/12/21 02:33:56;;;;;;;15.98;10.88;;;;;;;;;;6160104;23;20013;-82
2020/12/21 02:36:22;;;;;;;17.77;12.05;;;;;;;;;;6184941;23;20021;-82
2020/12/21 02:38:50;;;;;;;19.42;11.80;;;;;;;;;;6186998;23;20389;-82
2020/12/21 02:41:17;;;;;;;19.33;12.82;;;;;;;;;;6184492;22;20013;-82
2020/12/21 02:43:43;;;;;;;18.25;12.55;;;;;;;;;;6160222;23;20023;-82
2020/12/21 02:46:10;;;;;;;19.17;12.30;;;;;;;;;;6185889;23;20102;-82
2020/12/21 02:48:36;;;;;;;18.30;12.35;;;;;;;;;;6185708;23;20013;-82
2020/12/21 02:51:05;;;;;;;17.27;12.30;;;;;;;;;;6186375;23;20013;-82
2020/12/21 02:53:32;;;;;;;21.08;12.77;;;;;;;;;;6161280;23;20021;-82
2020/12/21 02:55:59;;;;;;;16.83;11.20;;;;;;;;;;6187429;23;20013;-82
2020/12/21 02:58:25;;;;;;;15.88;10.65;;;;;;;;;;6187135;22;20040;-82
2020/12/21 03:00:51;;;;;;;18.02;12.48;;;;;;;;;;6162475;23;20025;-82
2020/12/21 03:03:17;;;;;;;18.63;12.27;;;;;;;;;;6186050;23;20021;-83
2020/12/21 03:05:43;;;;;;;18.33;12.50;;;;;;;;;;6187930;23;20048;-82
2020/12/21 03:08:10;;;;;;;18.42;11.68;;;;;;;;;;6185876;23;20021;-82
2020/12/21 03:10:38;;;;;;;15.18;10.73;;;;;;;;;;6187785;23;20013;-82
2020/12/21 03:13:05;;;;;;;20.55;14.02;;;;;;;;;;6187790;23;20025;-82
2020/12/21 03:15:31;;;;;;;18.50;11.63;;;;;;;;;;6187306;23;20048;-82
2020/12/21 03:17:57;;;;;;;19.10;12.07;;;;;;;;;;6188153;23;20024;-82
2020/12/21 03:20:23;;;;;;;18.00;11.82;;;;;;;;;;6188203;23;20017;-82
2020/12/21 03:22:49;;;;;;;18.00;12.10;;;;;;;;;;6187879;23;20017;-82
2020/12/21 03:25:16;;;;;;;19.25;12.13;;;;;;;;;;6187937;22;20035;-82
2020/12/21 03:27:42;;;;;;;19.67;13.38;;;;;;;;;;6187195;23;20364;-82
2020/12/21 03:30:09;;;;;;;19.80;12.85;;;;;;;;;;6187315;22;20021;-82
2020/12/21 03:32:36;;;;;;;16.63;11.35;;;;;;;;;;6161046;23;20460;-82
2020/12/21 03:35:03;;;;;;;19.92;12.75;;;;;;;;;;6187023;23;20062;-82
2020/12/21 03:37:32;;;;;;;17.58;11.32;;;;;;;;;;6187043;23;20333;-82
2020/12/21 03:39:58;;;;;;;17.25;11.02;;;;;;;;;;6137507;23;20526;-82
2020/12/21 03:42:24;;;;;;;17.77;12.32;;;;;;;;;;6186070;22;20013;-82
2020/12/21 03:44:50;;;;;;;18.55;12.68;;;;;;;;;;6187141;23;20329;-82
2020/12/21 03:47:17;;;;;;;16.45;10.90;;;;;;;;;;6186737;23;20017;-82
2020/12/21 03:49:43;;;;;;;20.35;12.75;;;;;;;;;;6187275;22;20025;-82
2020/12/21 03:52:09;;;;;;;17.75;11.60;;;;;;;;;;6187539;23;20037;-82
2020/12/21 03:54:34;;;;;;;15.90;10.57;;;;;;;;;;6186697;23;20017;-82
2020/12/21 03:57:00;;;;;;;16.45;11.10;;;;;;;;;;6186452;23;20016;-82
2020/12/21 03:59:27;;;;;;;18.73;12.45;;;;;;;;;;6187322;23;20420;-82
2020/12/21 04:01:53;;;;;;;17.30;11.50;;;;;;;;;;6186730;23;20017;-82
2020/12/21 04:04:20;;;;;;;18.65;12.43;;;;;;;;;;6186274;23;20039;-82
2020/12/21 04:06:46;;;;;;;22.77;13.50;;;;;;;;;;6183520;23;20021;-83
2020/12/21 04:09:12;;;;;;;19.13;13.43;;;;;;;;;;6177401;23;20017;-82
2020/12/21 04:11:38;;;;;;;20.98;13.73;;;;;;;;;;6179719;23;20029;-83
2020/12/21 04:14:04;;;;;;;18.63;11.73;;;;;;;;;;6180701;23;20027;-82
2020/12/21 04:16:30;;;;;;;21.83;13.05;;;;;;;;;;6180049;23;20055;-82
2020/12/21 04:18:58;;;;;;;30.20;16.35;;;;;;;;;;6180101;23;20024;-83
2020/12/21 04:21:25;;;;;;;29.83;16.25;;;;;;;;;;6180566;23;20021;-83
2020/12/21 04:23:51;;;;;;;27.88;17.10;;;;;;;;;;6180551;23;20021;-83
2020/12/21 04:26:17;;;;;;;36.58;18.05;;;;;;;;;;6179852;22;20035;-82
2020/12/21 04:28:43;;;;;;;36.28;16.90;;;;;;;;;;6180488;23;20021;-82
2020/12/21 04:31:09;;;;;;;37.15;18.20;;;;;;;;;;6179434;23;20013;-82
2020/12/21 04:33:35;;;;;;;33.97;17.42;;;;;;;;;;6180053;23;20027;-83
2020/12/21 04:36:01;;;;;;;23.40;13.75;;;;;;;;;;6179217;23;20031;-83
2020/12/21 04:38:28;;;;;;;21.42;12.88;;;;;;;;;;6179493;23;20032;-83
2020/12/21 04:40:56;;;;;;;19.25;11.90;;;;;;;;;;6180884;23;20543;-83
2020/12/21 04:43:22;;;;;;;18.65;11.82;;;;;;;;;;6180728;23;20051;-83
2020/12/21 04:45:50;;;;;;;19.23;11.90;;;;;;;;;;6180911;23;20419;-83
2020/12/21 04:48:17;;;;;;;16.60;10.00;;;;;;;;;;6181410;23;20127;-83
2020/12/21 04:50:43;;;;;;;21.35;14.18;;;;;;;;;;6180359;23;20017;-82
2020/12/21 04:53:09;;;;;;;22.92;14.98;;;;;;;;;;6180469;23;20048;-83
2020/12/21 04:55:37;;;;;;;22.88;14.65;;;;;;;;;;6180986;23;20114;-82
2020/12/21 04:58:04;;;;;;;22.08;14.48;;;;;;;;;;6180646;23;20076;-82
2020/12/21 05:00:31;;;;;;;23.23;14.02;;;;;;;;;;6180580;23;20025;-83
2020/12/21 05:02:58;;;;;;;20.20;13.27;;;;;;;;;;6180180;23;20246;-82
2020/12/21 05:05:32;;;;;;;19.58;12.60;;;;;;;;;;6180552;22;20023;-83
2020/12/21 05:07:58;;;;;;;21.13;12.52;;;;;;;;;;6180567;23;20029;-83
2020/12/21 05:10:24;;;;;;;18.75;12.43;;;;;;;;;;6180453;23;20325;-83
2020/12/21 05:13:02;;;;;;;18.33;11.50;;;;;;;;;;6180480;23;20303;-82
2020/12/21 05:15:28;;;;;;;19.00;12.20;;;;;;;;;;6180444;23;20462;-83
2020/12/21 05:18:08;;;;;;;20.13;13.50;;;;;;;;;;6180140;22;20094;-83
2020/12/21 05:20:35;;;;;;;20.75;13.55;;;;;;;;;;6180878;22;20094;-83
2020/12/21 05:23:02;;;;;;;22.90;13.95;;;;;;;;;;6181028;23;20390;-82
2020/12/21 05:25:30;;;;;;;17.15;11.82;;;;;;;;;;6180089;23;20021;-83
2020/12/21 05:27:56;;;;;;;19.90;11.73;;;;;;;;;;6179851;23;20352;-83
2020/12/21 05:30:23;;;;;;;17.73;11.10;;;;;;;;;;6177495;23;20018;-83
2020/12/21 05:32:59;;;;;;;18.02;11.90;;;;;;;;;;6180221;22;20052;-82
2020/12/21 05:35:27;;;;;;;;;;;;;;;;;;6180676;23;20023;-83
2020/12/21 05:37:53;;;;;;;17.90;10.90;;;;;;;;;;6180478;23;19982;-83
2020/12/21 05:40:25;;;;;;;18.02;12.20;;;;;;;;;;6180027;23;20021;-82
2020/12/21 05:42:53;;;;;;;18.77;11.00;;;;;;;;;;6179798;23;20457;-83
2020/12/21 05:45:19;;;;;;;17.63;12.25;;;;;;;;;;6180143;23;20457;-82
2020/12/21 05:47:49;;;;;;;17.08;11.18;;;;;;;;;;6180039;23;20025;-83
2020/12/21 05:50:20;;;;;;;21.60;13.13;;;;;;;;;;6180201;23;20027;-83
2020/12/21 05:52:52;;;;;;;17.83;11.75;;;;;;;;;;6180309;23;20425;-83
2020/12/21 05:55:21;;;;;;;17.30;11.50;;;;;;;;;;6180198;23;20064;-83
2020/12/21 05:57:48;;;;;;;17.95;11.23;;;;;;;;;;6179363;23;20108;-83
2020/12/21 06:00:26;;;;;;;25.10;15.45;;;;;;;;;;6179844;23;20021;-85
2020/12/21 06:03:23;;;;;;;20.55;13.05;;;;;;;;;;6179824;23;20024;-85
2020/12/21 06:06:17;;;;;;;;;;;;;;;;;;;;;
2020/12/21 06:08:54;;;;;;;19.25;12.15;;;;;;;;;;6180245;23;20096;-85
2020/12/21 06:11:33;;;;;;;23.30;13.48;;;;;;;;;;6179675;23;20509;-86
2020/12/21 06:14:38;;;;;;;;;;;;;;;;;;;;;
2020/12/21 06:20:12;;;;;;;20.33;12.82;;;;;;;;;;6151080;23;20096;-85
2020/12/21 06:22:58;;;;;;;19.92;13.48;;;;;;;;;;6180334;23;20056;-86
2020/12/21 06:25:39;;;;;;;18.43;13.10;;;;;;;;;;6188274;22;20061;-85
2020/12/21 06:28:14;;;;;;;21.27;14.20;;;;;;;;;;6156007;23;20025;-86
2020/12/21 06:30:53;;;;;;;19.48;12.07;;;;;;;;;;6180696;23;20042;-86
2020/12/21 06:33:24;;;;;;;18.45;12.48;;;;;;;;;;6179184;23;20263;-85
2020/12/21 06:36:02;;;;;;;17.65;11.57;;;;;;;;;;6180647;22;20093;-85
2020/12/21 06:38:34;;;;;;;17.40;11.25;;;;;;;;;;6180046;23;20378;-85
2020/12/21 06:41:16;;;;;;;19.40;11.73;;;;;;;;;;6180945;23;20031;-85
2020/12/21 06:44:05;;;;;;;;;;;;;;;;;;;;;
2020/12/21 06:46:45;;;;;;;18.83;11.77;;;;;;;;;;6183985;23;20040;-86
2020/12/21 06:49:49;;;;;;;27.13;13.90;;;;;;;;;;6160093;23;20074;-85
2020/12/21 08:05:18;;;;;;;26.60;13.95;;;;;;;;;;6121402;23;20115;-88
2020/12/21 08:07:44;;;;;;;25.48;14.65;;;;;;;;;;6214699;22;20387;-88
2020/12/21 08:10:12;;;;;;;22.85;14.13;;;;;;;;;;6214186;23;20029;-86
2020/12/21 08:12:38;;;;;;;21.55;13.15;;;;;;;;;;6213693;23;20032;-88
2020/12/21 08:15:06;;;;;;;19.92;11.93;;;;;;;;;;6213819;23;20016;-88
2020/12/21 08:17:33;;;;;;;18.80;12.63;;;;;;;;;;6214040;22;20473;-88
2020/12/21 08:20:06;;;;;;;19.88;11.68;;;;;;;;;;6213339;22;20037;-86
2020/12/21 08:22:33;;;;;;;29.77;21.00;;;;;;;;;;6213205;22;20202;-86
2020/12/21 08:25:00;;;;;;;24.25;16.15;;;;;;;;;;6213742;23;20028;-86
2020/12/21 08:27:26;;;;;;;22.65;14.95;;;;;;;;;;6213605;22;20029;-87
2020/12/21 08:29:52;;;;;;;20.17;13.57;;;;;;;;;;6212761;22;20080;-89
2020/12/21 08:32:29;;;;;;;18.67;12.90;;;;;;;;;;6213069;22;20025;-86
2020/12/21 08:34:57;;;;;;;26.58;15.93;;;;;;;;;;6213176;23;20025;-88
2020/12/21 08:37:23;;;;;;;24.52;14.80;;;;;;;;;;6212593;23;20029;-86
2020/12/21 08:39:50;;;;;;;18.73;12.90;;;;;;;;;;6212667;23;20089;-86
2020/12/21 08:42:16;;;;;;;16.05;11.48;;;;;;;;;;6212707;23;20021;-88
2020/12/21 08:44:42;;;;;;;20.52;13.60;;;;;;;;;;6213980;22;20495;-87
2020/12/21 08:47:08;;;;;;;17.75;11.73;;;;;;;;;;6213023;23;20054;-87
2020/12/21 08:49:37;;;;;;;18.20;12.20;;;;;;;;;;6212155;22;20349;-87
2020/12/21 08:52:04;;;;;;;22.38;11.93;;;;;;;;;;6212903;23;20071;-87
2020/12/21 08:54:30;;;;;;;30.10;13.50;;;;;;;;;;6213253;22;20032;-87
2020/12/21 08:56:58;;;;;;;23.38;13.75;;;;;;;;;;6212711;23;20020;-86
2020/12/21 08:59:25;;;;;;;21.27;13.15;;;;;;;;;;6211070;22;20035;-86
2020/12/21 09:01:52;;;;;;;26.33;13.98;;;;;;;;;;6213189;23;20528;-87
2020/12/21 09:04:18;;;;;;;34.25;15.77;;;;;;;;;;6212481;23;20109;-88
2020/12/21 09:06:44;;;;;;;24.98;13.63;;;;;;;;;;6212360;23;20390;-87
2020/12/21 09:09:10;;;;;;;24.75;12.90;;;;;;;;;;6212247;23;20062;-88
2020/12/21 09:11:36;;;;;;;20.33;11.75;;;;;;;;;;6212888;23;20025;-88
2020/12/21 09:14:03;;;;;;;24.30;12.88;;;;;;;;;;6211650;23;20021;-87
2020/12/21 09:16:31;;;;;;;23.42;12.90;;;;;;;;;;6209036;23;20027;-86
2020/12/21 09:18:59;;;;;;;65.88;39.97;;;;;;;;;;6211974;22;20042;-89
2020/12/21 09:21:27;;;;;;;44.22;23.23;;;;;;;;;;6208210;22;20029;-88
2020/12/21 09:23:54;;;;;;;32.15;13.95;;;;;;;;;;6211539;22;20029;-87
2020/12/21 09:26:20;;;;;;;26.55;13.52;;;;;;;;;;6213182;23;20025;-87
2020/12/21 09:28:47;;;;;;;21.13;11.75;;;;;;;;;;6211548;22;20021;-88
2020/12/21 09:31:14;;;;;;;17.63;11.13;;;;;;;;;;6211240;23;20042;-88
2020/12/21 09:33:40;;;;;;;16.50;11.15;;;;;;;;;;6212640;23;20395;-87
2020/12/21 09:36:07;;;;;;;23.92;12.48;;;;;;;;;;6212070;22;20028;-88
2020/12/21 09:38:33;;;;;;;41.92;14.23;;;;;;;;;;6212056;23;20627;-88
2020/12/21 09:40:59;;;;;;;24.95;12.90;;;;;;;;;;6212914;23;20024;-87
2020/12/21 09:43:25;;;;;;;25.73;15.13;;;;;;;;;;6213060;23;20483;-87
2020/12/21 09:45:51;;;;;;;27.45;17.55;;;;;;;;;;6212609;23;20051;-88
2020/12/21 09:48:18;;;;;;;20.67;13.85;;;;;;;;;;6212627;23;20036;-87
2020/12/21 09:50:44;;;;;;;26.05;13.38;;;;;;;;;;6213386;23;20066;-88
2020/12/21 09:53:10;;;;;;;28.80;14.80;;;;;;;;;;6212347;23;20017;-87
2020/12/21 09:55:38;;;;;;;19.08;12.82;;;;;;;;;;6212750;23;20048;-88
2020/12/21 09:58:04;;;;;;;21.98;13.90;;;;;;;;;;6213462;22;20046;-87
2020/12/21 10:00:30;;;;;;;24.83;15.63;;;;;;;;;;6212148;23;20602;-88
2020/12/21 10:02:56;;;;;;;28.48;17.88;;;;;;;;;;6213248;23;20024;-88
2020/12/21 10:05:22;;;;;;;28.70;19.02;;;;;;;;;;6213130;23;20468;-87
2020/12/21 10:07:48;;;;;;;33.20;19.58;;;;;;;;;;6212664;23;20070;-88
2020/12/21 10:10:14;;;;;;;29.08;17.48;;;;;;;;;;6212959;23;20021;-88
2020/12/21 10:12:41;;;;;;;26.02;17.92;;;;;;;;;;6213120;23;20054;-88
2020/12/21 10:15:07;;;;;;;27.98;18.15;;;;;;;;;;6212906;23;20333;-88
2020/12/21 10:17:33;;;;;;;29.75;19.17;;;;;;;;;;6213138;22;20020;-88
2020/12/21 10:19:59;;;;;;;28.27;19.13;;;;;;;;;;6212983;23;20074;-88
2020/12/21 10:22:26;;;;;;;31.67;21.73;;;;;;;;;;6212263;23;20024;-88
2020/12/21 10:24:52;;;;;;;27.67;19.10;;;;;;;;;;6212377;23;20074;-88
2020/12/21 10:27:18;;;;;;;34.80;22.83;;;;;;;;;;6212238;23;20028;-88
2020/12/21 10:29:44;;;;;;;33.65;22.42;;;;;;;;;;6211114;23;20055;-88
2020/12/21 10:32:10;;;;;;;32.97;21.45;;;;;;;;;;6212038;23;20077;-88
2020/12/21 10:34:35;;;;;;;29.42;19.17;;;;;;;;;;6212004;23;20024;-88
2020/12/21 10:37:01;;;;;;;26.35;18.77;;;;;;;;;;6211868;23;20429;-87
2020/12/21 10:39:28;;;;;;;28.05;19.27;;;;;;;;;;6212464;23;20816;-88
2020/12/21 10:41:54;;;;;;;28.45;18.98;;;;;;;;;;6212508;23;20077;-87
2020/12/21 10:44:20;;;;;;;28.90;17.40;;;;;;;;;;6212673;23;20028;-86
2020/12/21 10:46:46;;;;;;;28.92;17.92;;;;;;;;;;6214428;23;20032;-88
2020/12/21 10:49:12;;;;;;;31.33;19.90;;;;;;;;;;6212515;23;20099;-87
2020/12/21 10:51:38;;;;;;;23.45;15.65;;;;;;;;;;6212518;23;20021;-87
2020/12/21 10:54:04;;;;;;;23.08;15.63;;;;;;;;;;6213392;23;20024;-86
2020/12/21 10:56:31;;;;;;;28.10;17.45;;;;;;;;;;6212430;23;20021;-85
2020/12/21 10:58:57;;;;;;;25.13;16.55;;;;;;;;;;6213086;22;20016;-86
2020/12/21 11:01:23;;;;;;;30.13;17.55;;;;;;;;;;6213189;22;20021;-85
2020/12/21 11:03:49;;;;;;;41.58;23.15;;;;;;;;;;6213739;23;20029;-86
2020/12/21 11:06:20;;;;;;;40.53;22.48;;;;;;;;;;6211717;23;20035;-85
2020/12/21 11:08:46;;;;;;;50.17;25.02;;;;;;;;;;6214418;22;20028;-86
2020/12/21 11:11:12;;;;;;;42.22;21.33;;;;;;;;;;6213851;23;20032;-86
2020/12/21 11:13:41;;;;;;;30.73;18.20;;;;;;;;;;6211785;23;20025;-88
2020/12/21 11:16:09;;;;;;;34.97;20.10;;;;;;;;;;6214713;23;20081;-85
2020/12/21 11:18:35;;;;;;;37.63;20.63;;;;;;;;;;6215353;23;20100;-86
2020/12/21 11:21:00;;;;;;;29.33;20.25;;;;;;;;;;6216059;23;20032;-86
2020/12/21 11:23:26;;;;;;;35.47;22.88;;;;;;;;;;6215930;23;20021;-87
2020/12/21 11:25:52;;;;;;;39.78;23.27;;;;;;;;;;6213786;23;20024;-85
2020/12/21 11:28:18;;;;;;;33.13;21.00;;;;;;;;;;6214610;22;20021;-86
2020/12/21 11:30:45;;;;;;;38.33;22.77;;;;;;;;;;6210870;23;20047;-86
2020/12/21 11:33:11;;;;;;;38.58;23.60;;;;;;;;;;6212983;23;20020;-85
2020/12/21 11:35:37;;;;;;;40.38;23.85;;;;;;;;;;6212825;23;20028;-87
2020/12/21 11:38:03;;;;;;;35.05;22.10;;;;;;;;;;6212175;23;20028;-86
2020/12/21 11:40:29;;;;;;;43.20;26.08;;;;;;;;;;6212855;23;20020;-86
2020/12/21 11:42:55;;;;;;;42.92;23.27;;;;;;;;;;6210304;22;20032;-86
2020/12/21 11:45:21;;;;;;;39.75;22.80;;;;;;;;;;6206344;23;20024;-86
2020/12/21 11:47:48;;;;;;;36.20;22.15;;;;;;;;;;6205588;23;20055;-86
2020/12/21 11:50:15;;;;;;;40.33;22.65;;;;;;;;;;6206759;23;20027;-87
2020/12/21 11:52:41;;;;;;;31.00;21.60;;;;;;;;;;6211160;22;20046;-87
2020/12/21 11:55:07;;;;;;;37.83;23.85;;;;;;;;;;6212119;22;20330;-87
2020/12/21 11:57:33;;;;;;;31.95;21.13;;;;;;;;;;6212056;22;20471;-87
2020/12/21 11:59:59;;;;;;;35.33;23.23;;;;;;;;;;6212808;23;20017;-86
2020/12/21 12:02:25;;;;;;;35.15;23.60;;;;;;;;;;6212517;23;20028;-87
2020/12/21 12:04:51;;;;;;;31.65;21.38;;;;;;;;;;6212542;22;20052;-86
2020/12/21 12:07:17;;;;;;;28.77;19.92;;;;;;;;;;6213081;23;20040;-87
2020/12/21 12:09:43;;;;;;;30.33;20.73;;;;;;;;;;6209151;23;20055;-87
2020/12/21 12:12:09;;;;;;;30.80;20.52;;;;;;;;;;6212790;23;20467;-87
2020/12/21 12:14:36;;;;;;;28.90;19.40;;;;;;;;;;6212440;23;20025;-87
2020/12/21 12:17:02;;;;;;;27.65;18.83;;;;;;;;;;6212310;23;20389;-87
2020/12/21 12:19:28;;;;;;;30.27;20.50;;;;;;;;;;6213471;23;20023;-87
2020/12/21 12:21:55;;;;;;;26.17;19.27;;;;;;;;;;6207623;23;20376;-87
2020/12/21 12:24:22;;;;;;;30.10;20.10;;;;;;;;;;6212142;23;20021;-87
2020/12/21 12:26:51;;;;;;;27.20;19.10;;;;;;;;;;6212017;23;20017;-87
2020/12/21 12:29:17;;;;;;;34.17;23.45;;;;;;;;;;6208130;23;20660;-87
2020/12/21 12:31:43;;;;;;;32.13;21.67;;;;;;;;;;6210752;23;20047;-87
2020/12/21 12:34:09;;;;;;;31.23;20.17;;;;;;;;;;6211409;23;20031;-87
2020/12/21 12:36:36;;;;;;;35.28;20.05;;;;;;;;;;6211161;22;20040;-87
2020/12/21 12:39:03;;;;;;;30.10;19.92;;;;;;;;;;6208958;22;20021;-87
2020/12/21 12:41:29;;;;;;;31.23;20.77;;;;;;;;;;6210257;23;20249;-87
2020/12/21 12:43:55;;;;;;;29.08;19.05;;;;;;;;;;6210588;23;20025;-86
2020/12/21 12:46:21;;;;;;;30.65;19.13;;;;;;;;;;6210976;23;20025;-87
2020/12/21 12:48:47;;;;;;;35.55;20.40;;;;;;;;;;6211277;23;20021;-87
2020/12/21 12:51:15;;;;;;;29.50;18.73;;;;;;;;;;6211185;23;20024;-88
2020/12/21 12:53:41;;;;;;;24.48;16.65;;;;;;;;;;6212005;22;20505;-88
2020/12/21 12:56:09;;;;;;;25.63;17.10;;;;;;;;;;6215703;22;20025;-88
2020/12/21 12:58:35;;;;;;;26.50;17.35;;;;;;;;;;6213500;23;20017;-88
2020/12/21 13:01:01;;;;;;;28.45;17.55;;;;;;;;;;6220688;22;20059;-88
2020/12/21 13:03:35;;;;;;;25.52;17.13;;;;;;;;;;6225457;23;20608;-88
2020/12/21 13:06:02;;;;;;;29.98;18.20;;;;;;;;;;6223885;23;20020;-88
2020/12/21 13:08:28;;;;;;;24.10;15.73;;;;;;;;;;6219034;23;20023;-88
2020/12/21 13:10:55;;;;;;;25.55;16.90;;;;;;;;;;6210320;23;20145;-88
2020/12/21 13:13:22;;;;;;;23.17;15.15;;;;;;;;;;6213374;22;20031;-88
2020/12/21 13:15:48;;;;;;;22.65;14.15;;;;;;;;;;6213136;22;20078;-88
2020/12/21 13:18:14;;;;;;;21.30;14.73;;;;;;;;;;6212982;23;20464;-88
2020/12/21 13:20:40;;;;;;;28.75;15.60;;;;;;;;;;6212930;23;20039;-88
2020/12/21 13:23:06;;;;;;;22.00;15.98;;;;;;;;;;6213384;22;20021;-89
2020/12/21 13:25:32;;;;;;;27.05;17.55;;;;;;;;;;6213044;23;20016;-89
2020/12/21 13:27:58;;;;;;;29.98;16.25;;;;;;;;;;6213145;23;20020;-86
2020/12/21 13:30:25;;;;;;;19.42;15.25;;;;;;;;;;6210951;23;20361;-87
2020/12/21 13:32:51;;;;;;;22.23;15.07;;;;;;;;;;6213396;23;20024;-87
2020/12/21 13:35:17;;;;;;;22.90;15.40;;;;;;;;;;6213046;23;20464;-87
2020/12/21 13:37:43;;;;;;;25.33;15.48;;;;;;;;;;6212761;22;20024;-88
2020/12/21 13:40:09;;;;;;;26.38;15.10;;;;;;;;;;6212682;23;20093;-88
2020/12/21 13:42:35;;;;;;;24.73;14.05;;;;;;;;;;6212443;23;20024;-87
2020/12/21 13:45:01;;;;;;;19.38;14.43;;;;;;;;;;6212535;23;20020;-87
2020/12/21 13:47:28;;;;;;;19.17;13.63;;;;;;;;;;6210308;23;20028;-87
2020/12/21 13:49:53;;;;;;;24.33;14.52;;;;;;;;;;6209528;23;20278;-86
2020/12/21 13:52:19;;;;;;;19.83;14.32;;;;;;;;;;6212252;23;20105;-89
2020/12/21 13:54:45;;;;;;;21.95;14.43;;;;;;;;;;6211840;23;20020;-87
2020/12/21 13:57:11;;;;;;;19.10;13.60;;;;;;;;;;6211882;23;20028;-86
2020/12/21 13:59:37;;;;;;;25.02;15.68;;;;;;;;;;6210904;23;20040;-86
2020/12/21 14:02:04;;;;;;;18.25;13.32;;;;;;;;;;6210602;23;20471;-87
2020/12/21 14:04:31;;;;;;;18.40;13.15;;;;;;;;;;6211452;23;20322;-87
2020/12/21 14:06:57;;;;;;;21.42;14.55;;;;;;;;;;6212281;23;20020;-86
2020/12/21 14:09:23;;;;;;;23.17;16.30;;;;;;;;;;6211798;23;20322;-86
2020/12/21 14:11:49;;;;;;;27.25;18.52;;;;;;;;;;6212545;22;20025;-87
2020/12/21 14:14:15;;;;;;;28.00;19.20;;;;;;;;;;6212996;23;20025;-86
2020/12/21 14:16:41;;;;;;;25.13;17.60;;;;;;;;;;6212219;22;20449;-87
2020/12/21 14:19:07;;;;;;;27.27;17.55;;;;;;;;;;6212671;23;20130;-86
2020/12/21 14:21:35;;;;;;;25.90;17.63;;;;;;;;;;6211020;23;20722;-87
2020/12/21 14:24:02;;;;;;;24.42;16.58;;;;;;;;;;6211733;22;20454;-87
2020/12/21 14:26:29;;;;;;;21.20;14.00;;;;;;;;;;6207907;23;20345;-87
2020/12/21 14:28:54;;;;;;;21.42;13.15;;;;;;;;;;6209391;22;20027;-86
2020/12/21 14:31:28;;;;;;;17.40;11.52;;;;;;;;;;6211550;23;20338;-87
2020/12/21 14:33:54;;;;;;;16.40;12.07;;;;;;;;;;6211833;22;20047;-87
2020/12/21 14:36:22;;;;;;;17.73;11.98;;;;;;;;;;6212365;22;20016;-87
2020/12/21 14:38:49;;;;;;;16.15;12.20;;;;;;;;;;6210284;23;20595;-87
2020/12/21 14:41:15;;;;;;;16.05;11.98;;;;;;;;;;6209780;23;20313;-87
2020/12/21 14:43:41;;;;;;;16.85;11.80;;;;;;;;;;6210362;23;20449;-87
2020/12/21 14:46:07;;;;;;;16.50;12.10;;;;;;;;;;6209849;23;20024;-87
2020/12/21 14:48:33;;;;;;;17.20;12.85;;;;;;;;;;6210419;23;20024;-87
2020/12/21 14:50:59;;;;;;;16.90;13.20;;;;;;;;;;6211614;23;20025;-87
2020/12/21 14:53:25;;;;;;;20.52;12.32;;;;;;;;;;6211310;23;20128;-87
2020/12/21 14:55:52;;;;;;;18.80;13.68;;;;;;;;;;6211064;23;20065;-87
2020/12/21 14:58:18;;;;;;;17.73;12.63;;;;;;;;;;6211027;23;20025;-87
2020/12/21 15:00:44;;;;;;;21.60;15.70;;;;;;;;;;6211036;23;20458;-88
2020/12/21 15:03:10;;;;;;;25.88;16.42;;;;;;;;;;6209647;23;20427;-86
2020/12/21 15:05:36;;;;;;;20.33;13.32;;;;;;;;;;6209551;23;20052;-87
2020/12/21 15:08:02;;;;;;;18.00;13.07;;;;;;;;;;6206453;23;20121;-86
2020/12/21 15:10:30;;;;;;;17.50;11.98;;;;;;;;;;6211939;23;20499;-86
2020/12/21 15:12:57;;;;;;;21.23;15.00;;;;;;;;;;6212168;23;20400;-88
2020/12/21 15:15:23;;;;;;;16.40;11.90;;;;;;;;;;6212248;23;20025;-86
2020/12/21 15:17:49;;;;;;;19.33;12.05;;;;;;;;;;6211974;23;20024;-87
2020/12/21 15:20:15;;;;;;;18.67;12.40;;;;;;;;;;6212409;23;20032;-86
2020/12/21 15:22:41;;;;;;;14.35;11.18;;;;;;;;;;6211550;23;20349;-87
2020/12/21 15:25:07;;;;;;;17.35;11.63;;;;;;;;;;6211760;23;20440;-87
2020/12/21 15:27:33;;;;;;;14.98;11.00;;;;;;;;;;6211685;23;20021;-87
2020/12/21 15:30:00;;;;;;;16.13;11.70;;;;;;;;;;6212719;23;20070;-87
2020/12/21 15:32:25;;;;;;;17.45;11.20;;;;;;;;;;6212437;22;20028;-88
2020/12/21 15:34:51;;;;;;;24.35;15.68;;;;;;;;;;6212711;23;20024;-87
2020/12/21 15:37:18;;;;;;;21.42;14.00;;;;;;;;;;6211417;23;20024;-87